createdAt,value
2019-05-14T00:00:00.646Z,6.90
2019-05-14T00:02:26.975Z,6.90
2019-05-14T00:04:53.305Z,6.90
2019-05-14T00:07:22.109Z,6.90
2019-05-14T00:09:48.142Z,6.90
2019-05-14T00:12:14.462Z,6.90
2019-05-14T00:14:43.817Z,7.00
2019-05-14T00:17:11.347Z,7.00
2019-05-14T00:19:37.818Z,7.00
2019-05-14T00:22:04.162Z,7.10
2019-05-14T00:24:32.339Z,7.10
2019-05-14T00:26:58.859Z,7.10
2019-05-14T00:29:25.191Z,7.20
2019-05-14T00:31:51.793Z,7.20
2019-05-14T00:34:18.321Z,7.20
2019-05-14T00:36:44.764Z,7.20
2019-05-14T00:39:11.387Z,7.20
2019-05-14T00:41:43.918Z,7.10
2019-05-14T00:44:10.334Z,7.20
2019-05-14T00:46:36.665Z,7.30
2019-05-14T00:49:04.059Z,7.30
2019-05-14T00:51:31.808Z,7.30
2019-05-14T00:53:58.453Z,7.30
2019-05-14T00:56:25.280Z,7.30
2019-05-14T00:58:52.335Z,7.20
2019-05-14T01:01:21.346Z,7.30
2019-05-14T01:03:47.072Z,7.30
2019-05-14T01:06:13.459Z,7.30
2019-05-14T01:08:41.347Z,7.30
2019-05-14T01:11:08.242Z,7.20
2019-05-14T01:13:34.568Z,7.40
2019-05-14T01:16:01.590Z,7.40
2019-05-14T01:18:28.254Z,7.30
2019-05-14T01:20:55.716Z,7.30
2019-05-14T01:23:22.063Z,7.30
2019-05-14T01:25:48.600Z,7.50
2019-05-14T01:28:14.928Z,7.60
2019-05-14T01:30:41.325Z,7.60
2019-05-14T01:33:07.653Z,7.70
2019-05-14T01:35:34.184Z,7.80
2019-05-14T01:38:02.743Z,7.60
2019-05-14T01:40:31.253Z,7.60
2019-05-14T01:42:57.377Z,7.50
2019-05-14T01:45:27.948Z,7.30
2019-05-14T01:47:52.161Z,7.30
2019-05-14T01:50:21.567Z,7.40
2019-05-14T01:52:47.915Z,7.40
2019-05-14T01:55:14.465Z,7.40
2019-05-14T01:57:42.547Z,7.10
2019-05-14T02:00:11.470Z,7.10
2019-05-14T02:02:38.799Z,7.10
2019-05-14T02:05:05.543Z,7.10
2019-05-14T02:07:31.895Z,7.00
2019-05-14T02:09:58.257Z,6.80
2019-05-14T02:12:24.928Z,6.70
2019-05-14T02:14:51.428Z,6.70
2019-05-14T02:17:18.097Z,6.70
2019-05-14T02:19:44.432Z,6.70
2019-05-14T02:22:11.315Z,6.70
2019-05-14T02:24:37.853Z,6.70
2019-05-14T02:27:04.192Z,6.60
2019-05-14T02:29:32.038Z,6.50
2019-05-14T02:31:59.027Z,6.40
2019-05-14T02:34:25.792Z,6.40
2019-05-14T02:36:52.156Z,6.30
2019-05-14T02:39:19.620Z,6.20
2019-05-14T02:41:49.633Z,6.20
2019-05-14T02:44:14.454Z,6.10
2019-05-14T02:46:40.912Z,6.10
2019-05-14T02:49:10.155Z,6.00
2019-05-14T02:51:35.448Z,6.00
2019-05-14T02:54:01.865Z,5.90
2019-05-14T02:56:29.537Z,5.90
2019-05-14T02:59:00.450Z,5.90
2019-05-14T03:01:30.165Z,5.70
2019-05-14T03:03:55.813Z,5.80
2019-05-14T03:06:22.214Z,5.70
2019-05-14T03:08:49.377Z,5.70
2019-05-14T03:11:16.070Z,5.60
2019-05-14T03:13:42.424Z,5.60
2019-05-14T03:16:22.239Z,5.60
2019-05-14T03:18:39.593Z,5.60
2019-05-14T03:21:05.562Z,5.60
2019-05-14T03:23:33.008Z,5.60
2019-05-14T03:26:00.492Z,5.60
2019-05-14T03:28:30.366Z,5.50
2019-05-14T03:31:01.928Z,5.50
2019-05-14T03:33:24.035Z,5.60
2019-05-14T03:35:58.841Z,5.60
2019-05-14T03:38:19.675Z,5.60
2019-05-14T03:40:49.368Z,5.50
2019-05-14T03:43:15.611Z,5.60
2019-05-14T03:45:41.988Z,5.60
2019-05-14T03:48:10.287Z,5.60
2019-05-14T03:50:38.925Z,5.50
2019-05-14T03:53:05.010Z,5.60
2019-05-14T03:55:31.332Z,5.70
2019-05-14T03:57:59.528Z,5.70
2019-05-14T04:00:49.998Z,5.80
2019-05-14T04:03:19.475Z,5.80
2019-05-14T04:05:49.267Z,5.80
2019-05-14T04:08:17.130Z,5.90
2019-05-14T04:10:50.656Z,6.00
2019-05-14T04:13:14.958Z,6.00
2019-05-14T04:15:44.314Z,6.00
2019-05-14T04:18:12.344Z,6.20
2019-05-14T04:20:39.488Z,6.30
2019-05-14T04:23:09.066Z,6.30
2019-05-14T04:25:35.157Z,6.30
2019-05-14T04:28:03.191Z,6.40
2019-05-14T04:30:31.624Z,6.50
2019-05-14T04:33:00.988Z,6.60
2019-05-14T04:35:29.629Z,6.70
2019-05-14T04:37:58.699Z,6.80
2019-05-14T04:40:23.899Z,6.90
2019-05-14T04:42:50.631Z,7.00
2019-05-14T04:45:19.658Z,7.00
2019-05-14T04:47:45.475Z,6.90
2019-05-14T04:50:11.889Z,7.10
2019-05-14T04:52:40.216Z,7.20
2019-05-14T04:55:09.859Z,7.40
2019-05-14T04:57:38.360Z,7.50
2019-05-14T05:00:04.458Z,7.60
2019-05-14T05:02:30.837Z,7.70
2019-05-14T05:04:59.406Z,7.70
2019-05-14T05:07:25.666Z,7.80
2019-05-14T05:09:51.991Z,7.90
2019-05-14T05:12:19.778Z,8.00
2019-05-14T05:14:49.061Z,8.00
2019-05-14T05:17:15.194Z,8.10
2019-05-14T05:19:45.332Z,8.30
2019-05-14T05:22:10.179Z,8.40
2019-05-14T05:24:38.133Z,8.40
2019-05-14T05:27:04.781Z,8.30
2019-05-14T05:29:31.158Z,8.30
2019-05-14T05:31:59.292Z,8.30
2019-05-14T05:34:28.142Z,8.40
2019-05-14T05:36:54.078Z,8.60
2019-05-14T05:39:20.437Z,8.70
2019-05-14T05:41:49.173Z,8.60
2019-05-14T05:44:15.334Z,8.70
2019-05-14T05:46:43.304Z,8.90
2019-05-14T05:49:09.787Z,9.10
2019-05-14T05:51:36.180Z,9.20
2019-05-14T05:54:02.615Z,9.30
2019-05-14T05:56:29.031Z,9.50
2019-05-14T05:58:55.776Z,9.60
2019-05-14T06:01:37.619Z,9.70
2019-05-14T06:03:51.782Z,9.80
2019-05-14T06:06:19.241Z,9.90
2019-05-14T06:08:48.880Z,10.00
2019-05-14T06:11:14.506Z,10.30
2019-05-14T06:13:41.978Z,10.60
2019-05-14T06:16:09.507Z,10.80
2019-05-14T06:18:39.349Z,10.60
2019-05-14T06:21:05.938Z,10.80
2019-05-14T06:23:33.898Z,10.60
2019-05-14T06:26:01.163Z,10.90
2019-05-14T06:28:32.501Z,10.80
2019-05-14T06:31:01.925Z,10.70
2019-05-14T06:33:28.760Z,10.90
2019-05-14T06:35:55.460Z,11.10
2019-05-14T06:38:22.237Z,11.10
2019-05-14T06:40:49.136Z,10.90
2019-05-14T06:43:15.617Z,10.80
2019-05-14T06:45:41.969Z,11.20
2019-05-14T06:48:08.794Z,11.40
2019-05-14T06:50:35.363Z,11.50
2019-05-14T06:53:02.101Z,11.60
2019-05-14T06:55:28.529Z,11.70
2019-05-14T06:57:54.843Z,11.50
2019-05-14T07:00:21.683Z,11.50
2019-05-14T07:02:49.067Z,11.40
2019-05-14T07:05:15.879Z,11.80
2019-05-14T07:07:42.216Z,12.10
2019-05-14T07:10:19.652Z,11.70
2019-05-14T07:12:46.683Z,12.00
2019-05-14T07:15:13.665Z,12.40
2019-05-14T07:17:40.013Z,11.80
2019-05-14T07:20:08.901Z,12.40
2019-05-14T07:22:35.647Z,12.70
2019-05-14T07:25:05.244Z,12.80
2019-05-14T07:27:31.653Z,12.70
2019-05-14T07:30:05.252Z,13.00
2019-05-14T07:32:32.693Z,13.20
2019-05-14T07:34:59.571Z,13.00
2019-05-14T07:37:28.446Z,12.70
2019-05-14T07:39:54.915Z,12.50
2019-05-14T07:42:21.349Z,12.10
2019-05-14T07:44:48.553Z,12.10
2019-05-14T07:47:15.187Z,12.10
2019-05-14T07:49:41.863Z,12.10
2019-05-14T07:52:09.440Z,12.40
2019-05-14T07:54:35.977Z,12.60
2019-05-14T07:57:02.317Z,13.00
2019-05-14T07:59:28.917Z,13.00
2019-05-14T08:01:55.436Z,13.00
2019-05-14T08:04:21.775Z,13.00
2019-05-14T08:06:48.778Z,12.80
2019-05-14T08:09:15.274Z,12.70
2019-05-14T08:11:41.652Z,12.50
2019-05-14T08:14:09.066Z,12.50
2019-05-14T08:16:38.157Z,12.90
2019-05-14T08:19:09.126Z,13.30
2019-05-14T08:21:34.180Z,13.40
2019-05-14T08:24:00.585Z,13.50
2019-05-14T08:26:28.763Z,13.70
2019-05-14T08:28:55.286Z,13.70
2019-05-14T08:31:21.612Z,13.50
2019-05-14T08:33:48.924Z,13.00
2019-05-14T08:36:18.182Z,12.60
2019-05-14T08:38:45.401Z,12.40
2019-05-14T08:41:12.063Z,12.60
2019-05-14T08:43:39.764Z,12.60
2019-05-14T08:46:08.217Z,12.50
2019-05-14T08:48:34.707Z,12.20
2019-05-14T08:51:01.021Z,12.30
2019-05-14T08:53:29.064Z,12.20
2019-05-14T08:55:55.520Z,12.60
2019-05-14T08:58:21.912Z,12.90
2019-05-14T09:00:48.524Z,13.50
2019-05-14T09:03:19.272Z,13.80
2019-05-14T09:05:45.990Z,13.50
2019-05-14T09:08:12.360Z,13.80
2019-05-14T09:10:40.300Z,13.70
2019-05-14T09:13:08.641Z,13.80
2019-05-14T09:15:35.104Z,13.70
2019-05-14T09:18:03.526Z,13.60
2019-05-14T09:20:29.712Z,13.80
2019-05-14T09:22:56.146Z,14.30
2019-05-14T09:25:22.524Z,14.30
2019-05-14T09:27:49.411Z,14.20
2019-05-14T09:30:23.937Z,14.10
2019-05-14T09:32:59.354Z,14.50
2019-05-14T09:35:29.051Z,14.30
2019-05-14T09:37:59.227Z,14.00
2019-05-14T09:40:25.526Z,13.90
2019-05-14T09:42:51.856Z,14.20
2019-05-14T09:45:19.239Z,14.30
2019-05-14T09:47:50.329Z,14.00
2019-05-14T09:50:18.604Z,13.50
2019-05-14T09:52:42.757Z,13.80
2019-05-14T09:55:09.707Z,13.90
2019-05-14T09:57:38.616Z,14.20
2019-05-14T10:00:09.104Z,14.00
2019-05-14T10:02:39.009Z,14.10
2019-05-14T10:05:04.784Z,14.50
2019-05-14T10:07:33.033Z,14.30
2019-05-14T10:09:59.450Z,13.70
2019-05-14T10:12:25.813Z,13.40
2019-05-14T10:14:53.244Z,14.00
2019-05-14T10:17:19.710Z,13.70
2019-05-14T10:19:46.088Z,14.20
2019-05-14T10:22:12.409Z,14.20
2019-05-14T10:24:38.951Z,14.40
2019-05-14T10:27:05.352Z,14.80
2019-05-14T10:29:31.900Z,14.50
2019-05-14T10:31:59.230Z,14.50
2019-05-14T10:34:28.762Z,14.60
2019-05-14T10:36:55.084Z,14.50
2019-05-14T10:39:21.553Z,14.20
2019-05-14T10:41:49.322Z,14.00
2019-05-14T10:44:18.521Z,14.00
2019-05-14T10:46:44.446Z,13.50
2019-05-14T10:49:19.440Z,13.80
2019-05-14T10:51:39.121Z,14.30
2019-05-14T10:54:21.006Z,14.60
2019-05-14T10:56:38.988Z,14.80
2019-05-14T10:59:05.312Z,15.00
2019-05-14T11:01:31.644Z,14.80
2019-05-14T11:04:11.457Z,14.50
2019-05-14T11:06:38.795Z,14.20
2019-05-14T11:09:08.842Z,14.30
2019-05-14T11:11:34.334Z,15.00
2019-05-14T11:14:00.677Z,15.40
2019-05-14T11:16:28.348Z,15.60
2019-05-14T11:18:57.389Z,16.00
2019-05-14T11:21:26.846Z,16.00
2019-05-14T11:23:51.491Z,15.90
2019-05-14T11:26:18.598Z,16.30
2019-05-14T11:28:45.594Z,15.70
2019-05-14T11:31:12.150Z,14.70
2019-05-14T11:33:41.753Z,13.10
2019-05-14T11:36:09.309Z,12.00
2019-05-14T11:38:37.433Z,11.30
2019-05-14T11:41:09.611Z,11.60
2019-05-14T11:43:39.704Z,12.50
2019-05-14T11:46:09.016Z,14.20
2019-05-14T11:48:38.942Z,14.70
2019-05-14T11:51:09.069Z,15.50
2019-05-14T11:53:38.574Z,16.70
2019-05-14T11:56:08.611Z,18.50
2019-05-14T11:58:39.420Z,19.00
2019-05-14T12:01:09.231Z,18.20
2019-05-14T12:03:39.024Z,17.40
2019-05-14T12:06:05.234Z,17.20
2019-05-14T12:08:31.963Z,19.00
2019-05-14T12:10:59.389Z,19.20
2019-05-14T12:13:29.856Z,18.60
2019-05-14T12:15:55.740Z,17.70
2019-05-14T12:18:22.252Z,16.50
2019-05-14T12:20:49.851Z,15.20
2019-05-14T12:23:18.991Z,14.10
2019-05-14T12:25:45.156Z,12.70
2019-05-14T12:28:13.651Z,11.20
2019-05-14T12:30:40.663Z,10.30
2019-05-14T12:33:07.612Z,10.10
2019-05-14T12:35:34.361Z,10.20
2019-05-14T12:38:01.095Z,10.20
2019-05-14T12:40:28.937Z,10.80
2019-05-14T12:42:58.609Z,11.10
2019-05-14T12:45:25.130Z,11.90
2019-05-14T12:47:51.912Z,12.40
2019-05-14T12:50:19.122Z,13.00
2019-05-14T12:52:48.273Z,13.20
2019-05-14T12:55:30.445Z,13.40
2019-05-14T12:58:02.060Z,12.70
2019-05-14T13:00:28.757Z,13.40
2019-05-14T13:02:55.349Z,13.20
2019-05-14T13:05:22.800Z,12.80
2019-05-14T13:07:51.151Z,13.20
2019-05-14T13:10:19.762Z,13.40
2019-05-14T13:12:48.394Z,12.90
2019-05-14T13:15:16.124Z,12.40
2019-05-14T13:17:42.835Z,12.40
2019-05-14T13:20:18.720Z,12.40
2019-05-14T13:22:50.079Z,11.80
2019-05-14T13:25:15.422Z,11.90
2019-05-14T13:27:41.882Z,11.80
2019-05-14T13:30:09.225Z,11.50
2019-05-14T13:32:39.070Z,11.40
2019-05-14T13:35:09.561Z,11.50
2019-05-14T13:37:34.908Z,11.40
2019-05-14T13:40:05.178Z,11.40
2019-05-14T13:42:32.587Z,11.50
2019-05-14T13:44:58.985Z,11.30
2019-05-14T13:47:25.420Z,11.60
2019-05-14T13:49:51.824Z,12.30
2019-05-14T13:52:18.839Z,12.70
2019-05-14T13:54:46.143Z,12.80
2019-05-14T13:57:12.516Z,13.10
2019-05-14T13:59:44.005Z,13.10
2019-05-14T14:02:09.855Z,13.40
2019-05-14T14:04:38.195Z,13.70
2019-05-14T14:07:05.249Z,13.90
2019-05-14T14:09:34.677Z,14.00
2019-05-14T14:12:01.220Z,13.30
2019-05-14T14:14:29.141Z,13.40
2019-05-14T14:16:58.151Z,13.00
2019-05-14T14:19:24.269Z,12.90
2019-05-14T14:21:51.896Z,12.80
2019-05-14T14:24:19.744Z,13.10
2019-05-14T14:26:48.936Z,13.00
2019-05-14T14:29:15.098Z,13.00
2019-05-14T14:31:41.885Z,12.90
2019-05-14T14:34:09.318Z,12.80
2019-05-14T14:36:38.438Z,12.80
2019-05-14T14:39:05.770Z,12.70
2019-05-14T14:41:32.163Z,12.50
2019-05-14T14:43:58.542Z,12.60
2019-05-14T14:46:25.098Z,12.60
2019-05-14T14:48:51.400Z,12.90
2019-05-14T14:51:19.246Z,12.80
2019-05-14T14:53:58.424Z,12.70
2019-05-14T14:56:15.790Z,12.50
2019-05-14T14:58:42.597Z,12.40
2019-05-14T15:01:09.740Z,12.60
2019-05-14T15:03:41.565Z,13.00
2019-05-14T15:06:09.583Z,13.20
2019-05-14T15:08:38.910Z,13.70
2019-05-14T15:11:08.300Z,13.90
2019-05-14T15:13:33.922Z,13.40
2019-05-14T15:16:01.063Z,13.90
2019-05-14T15:18:28.843Z,13.90
2019-05-14T15:20:55.647Z,14.30
2019-05-14T15:23:24.197Z,14.10
2019-05-14T15:25:52.496Z,13.90
2019-05-14T15:28:19.097Z,13.70
2019-05-14T15:30:45.667Z,14.30
2019-05-14T15:33:12.031Z,14.90
2019-05-14T15:35:38.430Z,15.60
2019-05-14T15:38:04.860Z,15.90
2019-05-14T15:40:31.578Z,16.50
2019-05-14T15:43:01.614Z,16.50
2019-05-14T15:45:28.667Z,16.50
2019-05-14T15:47:58.455Z,16.20
2019-05-14T15:50:23.515Z,16.00
2019-05-14T15:52:50.037Z,15.90
2019-05-14T15:55:18.336Z,15.70
2019-05-14T15:57:45.046Z,15.80
2019-05-14T16:00:12.400Z,16.70
2019-05-14T16:02:39.706Z,16.90
2019-05-14T16:05:09.720Z,16.40
2019-05-14T16:07:35.285Z,16.40
2019-05-14T16:10:01.831Z,16.20
2019-05-14T16:12:32.256Z,16.40
2019-05-14T16:14:57.555Z,16.40
2019-05-14T16:17:26.223Z,16.20
2019-05-14T16:19:52.261Z,16.30
2019-05-14T16:22:19.461Z,15.70
2019-05-14T16:24:56.426Z,15.80
2019-05-14T16:27:14.344Z,15.60
2019-05-14T16:29:45.450Z,15.20
2019-05-14T16:32:10.301Z,15.10
2019-05-14T16:34:41.038Z,14.90
2019-05-14T16:37:11.017Z,14.80
2019-05-14T16:39:36.272Z,14.70
2019-05-14T16:42:02.738Z,15.00
2019-05-14T16:44:31.034Z,16.40
2019-05-14T16:46:58.623Z,16.30
2019-05-14T16:49:25.371Z,16.30
2019-05-14T16:51:51.846Z,15.70
2019-05-14T16:54:18.421Z,16.40
2019-05-14T16:56:45.094Z,19.20
2019-05-14T16:59:11.676Z,20.90
2019-05-14T17:01:38.029Z,23.10
2019-05-14T17:04:05.161Z,24.10
2019-05-14T17:06:34.719Z,23.60
2019-05-14T17:09:00.403Z,23.30
2019-05-14T17:11:29.147Z,24.10
2019-05-14T17:13:58.009Z,25.10
2019-05-14T17:16:28.911Z,25.40
2019-05-14T17:18:55.210Z,25.40
2019-05-14T17:21:23.098Z,25.50
2019-05-14T17:23:58.349Z,24.90
2019-05-14T17:26:28.774Z,24.00
2019-05-14T17:28:59.461Z,24.10
2019-05-14T17:31:26.412Z,23.50
2019-05-14T17:33:54.176Z,23.80
2019-05-14T17:36:28.241Z,23.30
2019-05-14T17:38:54.627Z,23.80
2019-05-14T17:41:21.186Z,23.90
2019-05-14T17:43:49.344Z,23.10
2019-05-14T17:46:18.411Z,23.30
2019-05-14T17:48:45.073Z,22.70
2019-05-14T17:51:11.571Z,22.00
2019-05-14T17:53:38.749Z,22.20
2019-05-14T17:56:05.390Z,21.90
2019-05-14T17:58:31.856Z,21.30
2019-05-14T18:00:58.431Z,19.50
2019-05-14T18:03:25.249Z,17.50
2019-05-14T18:05:51.709Z,16.50
2019-05-14T18:08:18.621Z,15.60
2019-05-14T18:10:49.714Z,14.90
2019-05-14T18:13:18.169Z,14.20
2019-05-14T18:15:45.178Z,13.90
2019-05-14T18:18:12.229Z,13.50
2019-05-14T18:20:39.642Z,13.30
2019-05-14T18:23:11.488Z,13.10
2019-05-14T18:25:34.982Z,12.90
2019-05-14T18:28:02.344Z,12.70
2019-05-14T18:30:29.122Z,12.50
2019-05-14T18:32:58.274Z,12.30
2019-05-14T18:35:24.703Z,12.10
2019-05-14T18:37:51.105Z,11.90
2019-05-14T18:40:18.330Z,11.70
2019-05-14T18:42:44.905Z,11.70
2019-05-14T18:45:11.903Z,11.60
2019-05-14T18:47:39.909Z,11.50
2019-05-14T18:50:09.045Z,11.30
2019-05-14T18:52:35.866Z,11.20
2019-05-14T18:55:04.951Z,11.10
2019-05-14T18:57:31.474Z,10.90
2019-05-14T18:59:58.807Z,10.90
2019-05-14T19:02:26.467Z,10.80
2019-05-14T19:04:52.922Z,10.70
2019-05-14T19:07:19.294Z,10.60
2019-05-14T19:09:46.059Z,10.50
2019-05-14T19:12:12.459Z,10.50
2019-05-14T19:14:39.203Z,10.30
2019-05-14T19:17:05.704Z,10.30
2019-05-14T19:19:32.102Z,10.10
2019-05-14T19:21:58.740Z,10.10
2019-05-14T19:24:25.483Z,10.00
2019-05-14T19:26:51.849Z,9.90
2019-05-14T19:29:18.521Z,9.90
2019-05-14T19:31:45.495Z,9.80
2019-05-14T19:34:11.963Z,9.70
2019-05-14T19:36:40.190Z,9.60
2019-05-14T19:39:08.621Z,9.50
2019-05-14T19:41:35.007Z,9.50
2019-05-14T19:44:01.727Z,9.40
2019-05-14T19:46:29.111Z,9.30
2019-05-14T19:48:55.895Z,9.20
2019-05-14T19:51:22.473Z,9.20
2019-05-14T19:53:52.309Z,9.10
2019-05-14T19:56:18.173Z,9.00
2019-05-14T19:58:44.633Z,9.00
2019-05-14T20:01:11.029Z,9.00
2019-05-14T20:03:39.066Z,8.90
2019-05-14T20:06:05.394Z,8.90
2019-05-14T20:08:32.935Z,8.80
2019-05-14T20:10:59.626Z,8.80
2019-05-14T20:13:28.572Z,8.80
2019-05-14T20:15:55.461Z,8.70
2019-05-14T20:18:21.880Z,8.70
2019-05-14T20:20:49.271Z,8.60
2019-05-14T20:23:15.786Z,8.50
2019-05-14T20:25:42.488Z,8.50
2019-05-14T20:28:08.862Z,8.50
2019-05-14T20:30:38.570Z,8.40
2019-05-14T20:33:04.560Z,8.30
2019-05-14T20:35:34.879Z,8.30
2019-05-14T20:38:02.398Z,8.20
2019-05-14T20:40:28.816Z,8.20
2019-05-14T20:42:55.365Z,8.20
2019-05-14T20:45:22.528Z,8.10
2019-05-14T20:47:49.196Z,8.00
2019-05-14T20:50:18.124Z,7.90
2019-05-14T20:52:44.290Z,7.80
2019-05-14T20:55:11.082Z,7.80
2019-05-14T20:57:38.591Z,7.70
2019-05-14T21:00:07.680Z,7.70
2019-05-14T21:02:34.235Z,7.70
2019-05-14T21:05:04.273Z,7.60
2019-05-14T21:07:29.268Z,7.60
2019-05-14T21:09:55.723Z,7.60
2019-05-14T21:12:23.487Z,7.60
2019-05-14T21:14:49.852Z,7.60
2019-05-14T21:17:19.135Z,7.50
2019-05-14T21:19:49.247Z,7.40
2019-05-14T21:22:15.806Z,7.40
2019-05-14T21:24:42.194Z,7.30
2019-05-14T21:27:09.421Z,7.30
2019-05-14T21:29:38.287Z,7.20
2019-05-14T21:32:04.282Z,7.20
2019-05-14T21:34:31.122Z,7.20
2019-05-14T21:36:58.506Z,7.10
2019-05-14T21:39:26.003Z,7.10
2019-05-14T21:41:52.368Z,7.00
2019-05-14T21:44:18.888Z,7.00
2019-05-14T21:46:48.239Z,7.00
2019-05-14T21:49:14.713Z,6.90
2019-05-14T21:51:41.184Z,6.90
2019-05-14T21:54:09.485Z,6.90
2019-05-14T21:56:38.452Z,6.90
2019-05-14T21:59:04.131Z,6.80
2019-05-14T22:01:31.011Z,6.90
2019-05-14T22:03:59.294Z,6.80
2019-05-14T22:06:28.949Z,6.80
2019-05-14T22:08:55.164Z,6.70
2019-05-14T22:11:21.575Z,6.70
2019-05-14T22:13:49.594Z,6.70
2019-05-14T22:16:16.286Z,6.70
2019-05-14T22:18:43.008Z,6.60
2019-05-14T22:21:09.330Z,6.60
2019-05-14T22:23:38.527Z,6.60
2019-05-14T22:26:04.252Z,6.60
2019-05-14T22:28:30.582Z,6.60
2019-05-14T22:30:58.724Z,6.60
2019-05-14T22:33:25.175Z,6.60
2019-05-14T22:35:51.527Z,6.70
2019-05-14T22:38:20.236Z,6.70
2019-05-14T22:40:48.155Z,6.80
2019-05-14T22:43:14.469Z,6.80
2019-05-14T22:45:40.821Z,6.80
2019-05-14T22:48:09.394Z,7.00
2019-05-14T22:50:35.455Z,7.00
2019-05-14T22:53:01.778Z,7.00
2019-05-14T22:55:28.989Z,7.10
2019-05-14T22:57:59.373Z,7.10
2019-05-14T23:00:25.355Z,7.10
2019-05-14T23:02:51.692Z,7.10
2019-05-14T23:05:19.219Z,7.10
2019-05-14T23:07:45.797Z,7.20
2019-05-14T23:10:12.555Z,7.20
2019-05-14T23:12:38.899Z,7.20
2019-05-14T23:15:06.266Z,7.20
2019-05-14T23:17:32.653Z,7.10
2019-05-14T23:19:58.987Z,7.10
2019-05-14T23:22:25.334Z,7.20
2019-05-14T23:24:51.676Z,7.30
2019-05-14T23:27:18.865Z,7.20
2019-05-14T23:29:45.353Z,7.30
2019-05-14T23:32:11.700Z,7.20
2019-05-14T23:34:38.187Z,7.10
2019-05-14T23:37:04.558Z,7.10
2019-05-14T23:39:31.194Z,7.00
2019-05-14T23:41:58.297Z,7.00
2019-05-14T23:44:25.162Z,7.10
2019-05-14T23:46:51.541Z,7.10
2019-05-14T23:49:18.476Z,7.10
2019-05-14T23:51:44.879Z,7.10
2019-05-14T23:54:11.256Z,7.20
2019-05-14T23:56:38.464Z,7.30
2019-05-14T23:59:05.015Z,7.30
